createdAt,value
2016-12-31T00:00:06.897Z,0.2
2016-12-31T00:00:16.890Z,0.2
2016-12-31T00:00:26.880Z,0.1
2016-12-31T00:00:36.875Z,0.1
2016-12-31T00:00:46.868Z,0.1
2016-12-31T00:00:56.862Z,0.1
2016-12-31T00:01:06.856Z,0.1
2016-12-31T00:01:16.845Z,0.1
2016-12-31T00:01:26.844Z,0.1
2016-12-31T00:01:36.833Z,0.1
2016-12-31T00:01:46.828Z,0.1
2016-12-31T00:01:56.822Z,0.1
2016-12-31T00:02:06.814Z,0.1
2016-12-31T00:02:16.809Z,0.1
2016-12-31T00:02:26.799Z,0.1
2016-12-31T00:02:36.794Z,0.1
2016-12-31T00:02:46.787Z,0.2
2016-12-31T00:02:56.777Z,0.2
2016-12-31T00:03:06.772Z,0.2
2016-12-31T00:03:16.765Z,0.1
2016-12-31T00:03:26.758Z,0.2
2016-12-31T00:03:36.752Z,0.2
2016-12-31T00:03:46.742Z,0.2
2016-12-31T00:03:56.734Z,0.1
2016-12-31T00:04:06.729Z,0.2
2016-12-31T00:04:16.721Z,0.2
2016-12-31T00:04:26.715Z,0.2
2016-12-31T00:04:36.710Z,0.1
2016-12-31T00:04:46.704Z,0.1
2016-12-31T00:04:56.693Z,0.2
2016-12-31T00:05:06.689Z,0.2
2016-12-31T00:05:16.681Z,0.2
2016-12-31T00:05:26.672Z,0.2
2016-12-31T00:05:36.666Z,0.2
2016-12-31T00:05:46.658Z,0.2
2016-12-31T00:05:56.652Z,0.2
2016-12-31T00:06:06.645Z,0.2
2016-12-31T00:06:16.641Z,0.2
2016-12-31T00:06:26.635Z,0.2
2016-12-31T00:06:36.627Z,0.2
2016-12-31T00:06:46.617Z,0.2
2016-12-31T00:06:56.613Z,0.2
2016-12-31T00:07:06.606Z,0.1
2016-12-31T00:07:16.601Z,0.1
2016-12-31T00:07:26.589Z,0.2
2016-12-31T00:07:36.584Z,0.2
2016-12-31T00:07:46.576Z,0.1
2016-12-31T00:07:56.572Z,0.2
2016-12-31T00:08:06.562Z,0.2
2016-12-31T00:08:16.559Z,0.2
2016-12-31T00:08:26.547Z,0.2
2016-12-31T00:08:36.541Z,0.2
2016-12-31T00:08:46.533Z,0.2
2016-12-31T00:08:56.527Z,0.2
2016-12-31T00:09:06.520Z,0.1
2016-12-31T00:09:16.516Z,0.2
2016-12-31T00:09:26.510Z,0.2
2016-12-31T00:09:36.504Z,0.2
2016-12-31T00:09:46.494Z,0.1
2016-12-31T00:09:56.489Z,0.1
2016-12-31T00:10:06.478Z,0.1
2016-12-31T00:10:16.474Z,0.2
2016-12-31T00:10:26.465Z,0.1
2016-12-31T00:10:36.456Z,0.1
2016-12-31T00:10:46.453Z,0.1
2016-12-31T00:10:56.444Z,0.2
2016-12-31T00:11:06.437Z,0.1
2016-12-31T00:11:16.432Z,0.1
2016-12-31T00:11:26.424Z,0.1
2016-12-31T00:11:36.415Z,0.2
2016-12-31T00:11:46.412Z,0.1
2016-12-31T00:11:56.402Z,0.1
2016-12-31T00:12:06.398Z,0.2
2016-12-31T00:12:16.389Z,0.1
2016-12-31T00:12:26.384Z,0.1
2016-12-31T00:12:36.374Z,0.1
2016-12-31T00:12:46.367Z,0.1
2016-12-31T00:12:56.360Z,0.1
2016-12-31T00:13:06.357Z,0.1
2016-12-31T00:13:16.347Z,0.1
2016-12-31T00:13:26.340Z,0.1
2016-12-31T00:13:36.337Z,0.1
2016-12-31T00:13:46.325Z,0.1
2016-12-31T00:13:56.319Z,0.1
2016-12-31T00:14:06.313Z,0.1
2016-12-31T00:14:16.305Z,0.1
2016-12-31T00:14:26.298Z,0.1
2016-12-31T00:14:36.293Z,0.1
2016-12-31T00:14:46.284Z,0.1
2016-12-31T00:14:56.281Z,0.2
2016-12-31T00:15:06.272Z,0.2
2016-12-31T00:15:16.264Z,0.2
2016-12-31T00:15:26.282Z,0.2
2016-12-31T00:15:36.252Z,0.2
2016-12-31T00:15:46.247Z,0.2
2016-12-31T00:15:56.236Z,0.2
2016-12-31T00:16:06.230Z,0.3
2016-12-31T00:16:16.225Z,0.2
2016-12-31T00:16:26.215Z,0.2
2016-12-31T00:16:36.212Z,0.2
2016-12-31T00:16:46.203Z,0.2
2016-12-31T00:16:56.194Z,0.2
2016-12-31T00:17:06.191Z,0.1
2016-12-31T00:17:16.183Z,0.1
2016-12-31T00:17:26.174Z,0.1
2016-12-31T00:17:36.167Z,0.2
2016-12-31T00:17:46.159Z,0.2
2016-12-31T00:17:56.156Z,0.2
2016-12-31T00:18:06.146Z,0.1
2016-12-31T00:18:16.141Z,0.1
2016-12-31T00:18:26.134Z,0.1
2016-12-31T00:18:36.127Z,0.1
2016-12-31T00:18:46.118Z,0.1
2016-12-31T00:18:56.111Z,0.1
2016-12-31T00:19:06.104Z,0.1
2016-12-31T00:19:16.098Z,0.1
2016-12-31T00:19:26.092Z,0.1
2016-12-31T00:19:36.086Z,0.2
2016-12-31T00:19:46.077Z,0.1
2016-12-31T00:19:56.071Z,0.1
2016-12-31T00:20:06.062Z,0.1
2016-12-31T00:20:16.058Z,0.1
2016-12-31T00:20:26.048Z,0.1
2016-12-31T00:20:36.043Z,0.1
2016-12-31T00:20:46.034Z,0.1
2016-12-31T00:20:56.028Z,0.1
2016-12-31T00:21:06.025Z,0.1
2016-12-31T00:21:16.016Z,0.1
2016-12-31T00:21:26.010Z,0.1
2016-12-31T00:21:36.003Z,0.1
2016-12-31T00:21:45.993Z,0.1
2016-12-31T00:21:55.987Z,0.1
2016-12-31T00:22:05.981Z,0.1
2016-12-31T00:22:15.974Z,0.1
2016-12-31T00:22:25.968Z,0.1
2016-12-31T00:22:35.961Z,0.1
2016-12-31T00:22:45.955Z,0.1
2016-12-31T00:22:55.947Z,0.1
2016-12-31T00:23:05.940Z,0.1
2016-12-31T00:23:15.933Z,0.1
2016-12-31T00:23:25.924Z,0.1
2016-12-31T00:23:35.918Z,0.2
2016-12-31T00:23:45.913Z,0.1
2016-12-31T00:23:55.903Z,0.1
2016-12-31T00:24:05.898Z,0.1
2016-12-31T00:24:15.893Z,0.1
2016-12-31T00:24:25.886Z,0.2
2016-12-31T00:24:35.878Z,0.1
2016-12-31T00:24:45.871Z,0.2
2016-12-31T00:24:55.864Z,0.1
2016-12-31T00:25:05.859Z,0
2016-12-31T00:25:15.850Z,0
2016-12-31T00:25:25.842Z,0
2016-12-31T00:25:35.836Z,0.2
2016-12-31T00:25:45.827Z,0.1
2016-12-31T00:25:55.820Z,0.1
2016-12-31T00:26:05.815Z,0
2016-12-31T00:26:15.807Z,0
2016-12-31T00:26:25.803Z,-0.1
2016-12-31T00:26:35.792Z,0.1
2016-12-31T00:26:45.784Z,0.1
2016-12-31T00:26:55.778Z,0.2
2016-12-31T00:27:05.773Z,0.2
2016-12-31T00:27:15.764Z,0.1
2016-12-31T00:27:25.759Z,0.2
2016-12-31T00:27:35.753Z,0.1
2016-12-31T00:27:45.743Z,0.1
2016-12-31T00:27:55.735Z,0.1
2016-12-31T00:28:05.732Z,0.1
2016-12-31T00:28:15.724Z,0.1
2016-12-31T00:28:25.717Z,0.1
2016-12-31T00:28:35.709Z,0.2
2016-12-31T00:28:45.704Z,0.1
2016-12-31T00:28:55.697Z,0.1
2016-12-31T00:29:05.692Z,0.1
2016-12-31T00:29:15.681Z,0.1
2016-12-31T00:29:25.678Z,0.1
2016-12-31T00:29:35.674Z,0.1
2016-12-31T00:29:45.660Z,0.1
2016-12-31T00:29:55.657Z,0
2016-12-31T00:30:05.648Z,0.1
2016-12-31T00:30:15.641Z,0.1
2016-12-31T00:30:25.636Z,0.1
2016-12-31T00:30:35.625Z,0.1
2016-12-31T00:30:45.619Z,0.1
2016-12-31T00:30:55.614Z,0.1
2016-12-31T00:31:05.607Z,0.1
2016-12-31T00:31:15.599Z,0.2
2016-12-31T00:31:25.591Z,0.1
2016-12-31T00:31:35.587Z,0.1
2016-12-31T00:31:45.577Z,0.1
2016-12-31T00:31:55.570Z,0.1
2016-12-31T00:32:05.567Z,0.1
2016-12-31T00:32:15.557Z,0.1
2016-12-31T00:32:25.548Z,0.1
2016-12-31T00:32:35.545Z,0.1
2016-12-31T00:32:45.535Z,0
2016-12-31T00:32:55.528Z,0.2
2016-12-31T00:33:05.524Z,0.1
2016-12-31T00:33:15.514Z,0.1
2016-12-31T00:33:25.512Z,0.1
2016-12-31T00:33:35.501Z,0.1
2016-12-31T00:33:45.494Z,0
2016-12-31T00:33:55.488Z,0
2016-12-31T00:34:05.482Z,0.1
2016-12-31T00:34:15.473Z,0.1
2016-12-31T00:34:25.470Z,0
2016-12-31T00:34:35.463Z,-0.1
2016-12-31T00:34:45.453Z,0
2016-12-31T00:34:55.446Z,0
2016-12-31T00:35:05.440Z,0
2016-12-31T00:35:15.434Z,0.1
2016-12-31T00:35:25.429Z,0
2016-12-31T00:35:35.418Z,0
2016-12-31T00:35:45.411Z,0.1
2016-12-31T00:35:55.406Z,0
2016-12-31T00:36:05.399Z,-0.1
2016-12-31T00:36:15.395Z,0
2016-12-31T00:36:25.384Z,0
2016-12-31T00:36:35.380Z,-0.1
2016-12-31T00:36:45.370Z,0
2016-12-31T00:36:55.367Z,-0.1
2016-12-31T00:37:05.357Z,0
2016-12-31T00:37:15.349Z,0
2016-12-31T00:37:25.343Z,0
2016-12-31T00:37:35.338Z,0
2016-12-31T00:37:45.330Z,-0.1
2016-12-31T00:37:55.325Z,-0.1
2016-12-31T00:38:05.317Z,-0.1
2016-12-31T00:38:15.308Z,0
2016-12-31T00:38:25.303Z,0
2016-12-31T00:38:35.292Z,0
2016-12-31T00:38:45.287Z,-0.1
2016-12-31T00:38:55.279Z,0
2016-12-31T00:39:05.275Z,0
2016-12-31T00:39:15.267Z,0
2016-12-31T00:39:25.258Z,0
2016-12-31T00:39:35.252Z,0
2016-12-31T00:39:45.245Z,-0.1
2016-12-31T00:39:55.241Z,0
2016-12-31T00:40:05.231Z,0
2016-12-31T00:40:15.227Z,0
2016-12-31T00:40:25.219Z,0
2016-12-31T00:40:35.211Z,0
2016-12-31T00:40:45.203Z,0
2016-12-31T00:40:55.197Z,0
2016-12-31T00:41:05.190Z,0
2016-12-31T00:41:15.182Z,0
2016-12-31T00:41:25.178Z,0
2016-12-31T00:41:35.168Z,0
2016-12-31T00:41:45.161Z,-0.1
2016-12-31T00:41:55.158Z,0
2016-12-31T00:42:05.146Z,0.1
2016-12-31T00:42:15.141Z,0
2016-12-31T00:42:25.136Z,0.1
2016-12-31T00:42:35.130Z,0.2
2016-12-31T00:42:45.121Z,0.1
2016-12-31T00:42:55.115Z,0.1
2016-12-31T00:43:05.107Z,0.2
2016-12-31T00:43:15.098Z,0.1
2016-12-31T00:43:25.093Z,0.1
2016-12-31T00:43:35.086Z,0.1
2016-12-31T00:43:45.078Z,0.1
2016-12-31T00:43:55.072Z,0.1
2016-12-31T00:44:05.066Z,0.1
2016-12-31T00:44:15.059Z,0.2
2016-12-31T00:44:25.052Z,0.1
2016-12-31T00:44:35.043Z,0.2
2016-12-31T00:44:45.037Z,0.2
2016-12-31T00:44:55.028Z,0.1
2016-12-31T00:45:05.024Z,0.1
2016-12-31T00:45:15.014Z,0.1
2016-12-31T00:45:25.009Z,0.1
2016-12-31T00:45:35.001Z,0.1
2016-12-31T00:45:44.996Z,0.1
2016-12-31T00:45:54.990Z,0.2
2016-12-31T00:46:04.982Z,0.1
2016-12-31T00:46:14.975Z,0.1
2016-12-31T00:46:24.967Z,0.1
2016-12-31T00:46:34.959Z,0.2
2016-12-31T00:46:44.952Z,0.2
2016-12-31T00:46:54.948Z,0.1
2016-12-31T00:47:04.941Z,0.1
2016-12-31T00:47:14.932Z,0.1
2016-12-31T00:47:24.927Z,0.1
2016-12-31T00:47:34.920Z,0.1
2016-12-31T00:47:44.913Z,0.1
2016-12-31T00:47:54.906Z,0.1
2016-12-31T00:48:04.900Z,0.2
2016-12-31T00:48:14.890Z,0.1
2016-12-31T00:48:24.883Z,0.1
2016-12-31T00:48:34.878Z,0.2
2016-12-31T00:48:44.871Z,0.1
2016-12-31T00:48:54.864Z,0.1
2016-12-31T00:49:04.855Z,0.1
2016-12-31T00:49:14.850Z,0.1
2016-12-31T00:49:24.844Z,0.1
2016-12-31T00:49:34.837Z,0
2016-12-31T00:49:44.827Z,0.1
2016-12-31T00:49:54.821Z,0.1
2016-12-31T00:50:04.816Z,0.1
2016-12-31T00:50:14.809Z,0.2
2016-12-31T00:50:24.800Z,0.2
2016-12-31T00:50:34.793Z,0.2
2016-12-31T00:50:44.788Z,0.2
2016-12-31T00:50:54.782Z,0.2
2016-12-31T00:51:04.774Z,0.2
2016-12-31T00:51:14.765Z,0.2
2016-12-31T00:51:24.757Z,0.1
2016-12-31T00:51:34.754Z,0.1
2016-12-31T00:51:44.744Z,0.1
2016-12-31T00:51:54.739Z,0.1
2016-12-31T00:52:04.732Z,0.1
2016-12-31T00:52:14.726Z,0.1
2016-12-31T00:52:24.720Z,0.1
2016-12-31T00:52:34.710Z,0.2
2016-12-31T00:52:44.708Z,0.1
2016-12-31T00:52:54.695Z,0.2
2016-12-31T00:53:04.691Z,0.1
2016-12-31T00:53:14.681Z,0.2
2016-12-31T00:53:24.675Z,0.2
2016-12-31T00:53:34.670Z,0.1
2016-12-31T00:53:44.662Z,0.2
2016-12-31T00:53:54.654Z,0.2
2016-12-31T00:54:04.646Z,0.2
2016-12-31T00:54:14.640Z,0.2
2016-12-31T00:54:24.633Z,0.2
2016-12-31T00:54:34.627Z,0.1
2016-12-31T00:54:44.621Z,0.2
2016-12-31T00:54:54.615Z,0.2
2016-12-31T00:55:04.607Z,0.3
2016-12-31T00:55:14.601Z,0.2
2016-12-31T00:55:24.593Z,0.2
2016-12-31T00:55:34.586Z,0.2
2016-12-31T00:55:44.577Z,0.2
2016-12-31T00:55:54.572Z,0.2
2016-12-31T00:56:04.566Z,0.2
2016-12-31T00:56:14.559Z,0.3
2016-12-31T00:56:24.549Z,0.2
2016-12-31T00:56:34.547Z,0.2
2016-12-31T00:56:44.538Z,0.2
2016-12-31T00:56:54.528Z,0.2
2016-12-31T00:57:04.525Z,0.2
2016-12-31T00:57:14.515Z,0.2
2016-12-31T00:57:24.510Z,0.3
2016-12-31T00:57:34.501Z,0.3
2016-12-31T00:57:44.495Z,0.3
2016-12-31T00:57:54.488Z,0.3
2016-12-31T00:58:04.480Z,0.3
2016-12-31T00:58:14.473Z,0.3
2016-12-31T00:58:24.465Z,0.4
2016-12-31T00:58:34.458Z,0.4
2016-12-31T00:58:44.455Z,0.3
2016-12-31T00:58:54.448Z,0.4
2016-12-31T00:59:04.438Z,0.4
2016-12-31T00:59:14.431Z,0.5
2016-12-31T00:59:24.426Z,0.3
2016-12-31T00:59:34.421Z,0.3
2016-12-31T00:59:44.411Z,0.3
2016-12-31T00:59:54.405Z,0.4
2016-12-31T01:00:04.399Z,0.4
2016-12-31T01:00:14.390Z,0.5
2016-12-31T01:00:24.382Z,0.5
2016-12-31T01:00:34.379Z,0.4
2016-12-31T01:00:44.368Z,0.5
2016-12-31T01:00:54.362Z,0.5
2016-12-31T01:01:04.355Z,0.5
2016-12-31T01:01:14.348Z,0.5
2016-12-31T01:01:24.344Z,0.5
2016-12-31T01:01:34.334Z,0.6
2016-12-31T01:01:44.327Z,0.5
2016-12-31T01:01:54.321Z,0.6
2016-12-31T01:02:04.315Z,0.6
2016-12-31T01:02:14.308Z,0.6
2016-12-31T01:02:24.300Z,0.6
2016-12-31T01:02:34.296Z,0.6
2016-12-31T01:02:44.286Z,0.5
2016-12-31T01:02:54.281Z,0.6
2016-12-31T01:03:04.274Z,0.6
2016-12-31T01:03:14.267Z,0.7
2016-12-31T01:03:24.257Z,0.6
2016-12-31T01:03:34.250Z,0.6
2016-12-31T01:03:44.247Z,0.5
2016-12-31T01:03:54.236Z,0.5
2016-12-31T01:04:04.232Z,0.5
2016-12-31T01:04:14.223Z,0.5
2016-12-31T01:04:24.218Z,0.6
2016-12-31T01:04:34.209Z,0.5
2016-12-31T01:04:44.202Z,0.6
2016-12-31T01:04:54.197Z,0.5
2016-12-31T01:05:04.188Z,0.6
2016-12-31T01:05:14.183Z,0.6
2016-12-31T01:05:24.175Z,0.6
2016-12-31T01:05:34.168Z,0.6
2016-12-31T01:05:44.160Z,0.5
2016-12-31T01:05:54.156Z,0.6
2016-12-31T01:06:04.145Z,0.6
2016-12-31T01:06:14.141Z,0.6
2016-12-31T01:06:24.133Z,0.7
2016-12-31T01:06:34.125Z,0.6
2016-12-31T01:06:44.121Z,0.6
2016-12-31T01:06:54.111Z,0.7
2016-12-31T01:07:04.105Z,0.6
2016-12-31T01:07:14.101Z,0.6
2016-12-31T01:07:24.093Z,0.6
2016-12-31T01:07:34.086Z,0.7
2016-12-31T01:07:44.077Z,0.6
2016-12-31T01:07:54.069Z,0.7
2016-12-31T01:08:04.065Z,0.7
2016-12-31T01:08:14.057Z,0.8
2016-12-31T01:08:24.049Z,0.8
2016-12-31T01:08:34.045Z,0.7
2016-12-31T01:08:44.037Z,0.7
2016-12-31T01:08:54.028Z,0.7
2016-12-31T01:09:04.029Z,0.7
2016-12-31T01:09:14.016Z,0.8
2016-12-31T01:09:24.011Z,0.7
2016-12-31T01:09:34.005Z,0.8
2016-12-31T01:09:43.996Z,0.7
2016-12-31T01:09:53.986Z,0.7
2016-12-31T01:10:03.979Z,0.7
2016-12-31T01:10:13.973Z,0.8
2016-12-31T01:10:23.969Z,0.8
2016-12-31T01:10:33.961Z,0.8
2016-12-31T01:10:43.952Z,0.8
2016-12-31T01:10:53.948Z,0.8
2016-12-31T01:11:03.940Z,0.8
2016-12-31T01:11:13.932Z,0.8
2016-12-31T01:11:23.927Z,0.9
2016-12-31T01:11:33.920Z,0.8
2016-12-31T01:11:43.910Z,0.8
2016-12-31T01:11:53.903Z,0.8
2016-12-31T01:12:03.897Z,0.8
2016-12-31T01:12:13.892Z,0.8
2016-12-31T01:12:23.884Z,0.8
2016-12-31T01:12:33.875Z,0.7
2016-12-31T01:12:43.870Z,0.8
2016-12-31T01:12:53.862Z,0.8
2016-12-31T01:13:03.855Z,0.8
2016-12-31T01:13:13.848Z,0.9
2016-12-31T01:13:23.844Z,0.8
2016-12-31T01:13:33.837Z,0.8
2016-12-31T01:13:43.826Z,0.9
2016-12-31T01:13:53.820Z,0.8
2016-12-31T01:14:03.815Z,0.8
2016-12-31T01:14:13.806Z,0.8
2016-12-31T01:14:23.802Z,0.8
2016-12-31T01:14:33.794Z,0.9
2016-12-31T01:14:43.786Z,0.9
2016-12-31T01:14:53.779Z,0.9
2016-12-31T01:15:03.774Z,0.9
2016-12-31T01:15:13.765Z,0.9
2016-12-31T01:15:23.760Z,0.9
2016-12-31T01:15:33.751Z,0.9
2016-12-31T01:15:43.746Z,0.9
2016-12-31T01:15:53.739Z,0.9
2016-12-31T01:16:03.730Z,0.9
2016-12-31T01:16:13.726Z,0.8
2016-12-31T01:16:23.716Z,0.9
2016-12-31T01:16:33.711Z,0.9
2016-12-31T01:16:43.702Z,0.9
2016-12-31T01:16:53.695Z,0.9
2016-12-31T01:17:03.691Z,0.9
2016-12-31T01:17:13.682Z,0.9
2016-12-31T01:17:23.674Z,0.8
2016-12-31T01:17:33.668Z,0.8
2016-12-31T01:17:43.660Z,0.8
2016-12-31T01:17:53.657Z,0.8
2016-12-31T01:18:03.646Z,0.8
2016-12-31T01:18:13.638Z,0.9
2016-12-31T01:18:23.634Z,0.9
2016-12-31T01:18:33.628Z,0.8
2016-12-31T01:18:43.621Z,0.7
2016-12-31T01:18:53.611Z,0.8
2016-12-31T01:19:03.607Z,0.8
2016-12-31T01:19:13.599Z,0.8
2016-12-31T01:19:23.593Z,0.8
2016-12-31T01:19:33.587Z,0.8
2016-12-31T01:19:43.578Z,0.8
2016-12-31T01:19:53.570Z,0.9
2016-12-31T01:20:03.566Z,0.8
2016-12-31T01:20:13.557Z,0.8
2016-12-31T01:20:23.549Z,0.9
2016-12-31T01:20:33.545Z,0.9
2016-12-31T01:20:43.536Z,0.8
2016-12-31T01:20:53.529Z,0.8
2016-12-31T01:21:03.525Z,0.8
2016-12-31T01:21:13.517Z,0.8
2016-12-31T01:21:23.510Z,0.9
2016-12-31T01:21:33.502Z,0.8
2016-12-31T01:21:43.494Z,0.8
2016-12-31T01:21:53.488Z,0.8
2016-12-31T01:22:03.480Z,0.8
2016-12-31T01:22:13.476Z,0.9
2016-12-31T01:22:23.469Z,0.9
2016-12-31T01:22:33.461Z,0.9
2016-12-31T01:22:43.455Z,0.9
2016-12-31T01:22:53.446Z,0.9
2016-12-31T01:23:03.446Z,0.9
2016-12-31T01:23:13.434Z,0.9
2016-12-31T01:23:23.425Z,0.9
2016-12-31T01:23:33.418Z,0.9
2016-12-31T01:23:43.414Z,0.9
2016-12-31T01:23:53.406Z,1
2016-12-31T01:24:03.399Z,1
2016-12-31T01:24:13.390Z,1
2016-12-31T01:24:23.383Z,1
2016-12-31T01:24:33.379Z,1
2016-12-31T01:24:43.372Z,1
2016-12-31T01:24:53.365Z,0.9
2016-12-31T01:25:03.356Z,0.9
2016-12-31T01:25:13.350Z,0.9
2016-12-31T01:25:23.344Z,0.9
2016-12-31T01:25:33.338Z,1
2016-12-31T01:25:43.328Z,0.9
2016-12-31T01:25:53.323Z,1
2016-12-31T01:26:03.337Z,1
2016-12-31T01:26:13.309Z,1
2016-12-31T01:26:23.301Z,0.9
2016-12-31T01:26:33.293Z,0.9
2016-12-31T01:26:43.290Z,1
2016-12-31T01:26:53.282Z,1
2016-12-31T01:27:03.274Z,1
2016-12-31T01:27:13.267Z,1
2016-12-31T01:27:23.260Z,1
2016-12-31T01:27:33.254Z,1.1
2016-12-31T01:27:43.245Z,0.9
2016-12-31T01:27:53.238Z,1
2016-12-31T01:28:03.233Z,0.9
2016-12-31T01:28:13.226Z,1
2016-12-31T01:28:23.219Z,1
2016-12-31T01:28:33.211Z,1
2016-12-31T01:28:43.205Z,1
2016-12-31T01:28:53.196Z,1.1
2016-12-31T01:29:03.189Z,1
2016-12-31T01:29:13.182Z,1.1
2016-12-31T01:29:23.178Z,1.1
2016-12-31T01:29:33.172Z,1
2016-12-31T01:29:43.164Z,1.1
2016-12-31T01:29:53.155Z,1.1
2016-12-31T01:30:03.147Z,1
2016-12-31T01:30:13.141Z,1
2016-12-31T01:30:23.137Z,1
2016-12-31T01:30:33.129Z,1.1
2016-12-31T01:30:43.120Z,1
2016-12-31T01:30:53.116Z,1
2016-12-31T01:31:03.108Z,1
2016-12-31T01:31:13.104Z,1
2016-12-31T01:31:23.094Z,1
2016-12-31T01:31:33.088Z,1
2016-12-31T01:31:43.081Z,1.1
2016-12-31T01:31:53.073Z,1
2016-12-31T01:32:03.067Z,1
2016-12-31T01:32:13.061Z,1
2016-12-31T01:32:23.051Z,1
2016-12-31T01:32:33.047Z,1
2016-12-31T01:32:43.035Z,1
2016-12-31T01:32:53.030Z,1
2016-12-31T01:33:03.027Z,1
2016-12-31T01:33:13.016Z,0.9
2016-12-31T01:33:23.010Z,1
2016-12-31T01:33:33.003Z,0.9
2016-12-31T01:33:42.998Z,0.9
2016-12-31T01:33:52.989Z,1
2016-12-31T01:34:02.985Z,1
2016-12-31T01:34:12.978Z,0.9
2016-12-31T01:34:22.971Z,1
2016-12-31T01:34:32.964Z,1
2016-12-31T01:34:42.956Z,1
2016-12-31T01:34:52.950Z,0.9
2016-12-31T01:35:02.940Z,1
2016-12-31T01:35:12.934Z,1
2016-12-31T01:35:22.929Z,1
2016-12-31T01:35:32.919Z,1
2016-12-31T01:35:42.915Z,1.1
2016-12-31T01:35:52.907Z,1
2016-12-31T01:36:02.901Z,1
2016-12-31T01:36:12.892Z,1
2016-12-31T01:36:22.887Z,1
2016-12-31T01:36:32.881Z,1.1
2016-12-31T01:36:42.871Z,1
2016-12-31T01:36:52.866Z,1
2016-12-31T01:37:02.860Z,1
2016-12-31T01:37:12.852Z,1.1
2016-12-31T01:37:22.846Z,1
2016-12-31T01:37:32.839Z,1
2016-12-31T01:37:42.833Z,1
2016-12-31T01:37:52.822Z,1
2016-12-31T01:38:02.815Z,1.1
2016-12-31T01:38:12.811Z,1
2016-12-31T01:38:22.804Z,1
2016-12-31T01:38:32.797Z,1
2016-12-31T01:38:42.788Z,1
2016-12-31T01:38:52.783Z,1
2016-12-31T01:39:02.774Z,1
2016-12-31T01:39:12.770Z,1
2016-12-31T01:39:22.760Z,1
2016-12-31T01:39:32.755Z,0.9
2016-12-31T01:39:42.749Z,1
2016-12-31T01:39:52.741Z,1
2016-12-31T01:40:02.735Z,1
2016-12-31T01:40:12.729Z,0.9
2016-12-31T01:40:22.720Z,1
2016-12-31T01:40:32.712Z,1
2016-12-31T01:40:42.705Z,0.9
2016-12-31T01:40:52.700Z,0.9
2016-12-31T01:41:02.691Z,0.9
2016-12-31T01:41:12.686Z,0.9
2016-12-31T01:41:22.679Z,0.9
2016-12-31T01:41:32.673Z,0.9
2016-12-31T01:41:42.664Z,0.8
2016-12-31T01:41:52.659Z,0.9
2016-12-31T01:42:02.649Z,0.8
2016-12-31T01:42:12.642Z,0.9
2016-12-31T01:42:22.638Z,0.9
2016-12-31T01:42:32.628Z,0.9
2016-12-31T01:42:42.622Z,0.9
2016-12-31T01:42:52.615Z,0.9
2016-12-31T01:43:02.608Z,0.9
2016-12-31T01:43:12.604Z,0.8
2016-12-31T01:43:22.593Z,0.9
2016-12-31T01:43:32.589Z,0.9
2016-12-31T01:43:42.584Z,0.9
2016-12-31T01:43:52.573Z,0.9
2016-12-31T01:44:02.569Z,1
2016-12-31T01:44:12.560Z,0.9
2016-12-31T01:44:22.552Z,0.9
2016-12-31T01:44:32.546Z,0.9
2016-12-31T01:44:42.541Z,0.9
2016-12-31T01:44:52.534Z,0.9
2016-12-31T01:45:02.524Z,0.9
2016-12-31T01:45:12.517Z,0.9
2016-12-31T01:45:22.510Z,0.9
2016-12-31T01:45:32.505Z,0.8
2016-12-31T01:45:42.497Z,0.8
2016-12-31T01:45:52.493Z,0.8
2016-12-31T01:46:02.483Z,0.8
2016-12-31T01:46:12.476Z,0.9
2016-12-31T01:46:22.472Z,0.8
2016-12-31T01:46:32.463Z,0.7
2016-12-31T01:46:42.458Z,0.8
2016-12-31T01:46:52.451Z,0.8
2016-12-31T01:47:02.444Z,0.8
2016-12-31T01:47:12.435Z,0.7
2016-12-31T01:47:22.429Z,0.7
2016-12-31T01:47:32.423Z,0.7
2016-12-31T01:47:42.417Z,0.7
2016-12-31T01:47:52.409Z,0.7
2016-12-31T01:48:02.403Z,0.7
2016-12-31T01:48:12.394Z,0.8
2016-12-31T01:48:22.389Z,0.7
2016-12-31T01:48:32.380Z,0.8
2016-12-31T01:48:42.372Z,0.8
2016-12-31T01:48:52.366Z,0.8
2016-12-31T01:49:02.361Z,0.7
2016-12-31T01:49:12.351Z,0.8
2016-12-31T01:49:22.344Z,0.7
2016-12-31T01:49:32.341Z,0.8
2016-12-31T01:49:42.334Z,0.7
2016-12-31T01:49:52.325Z,0.6
2016-12-31T01:50:02.316Z,0.6
2016-12-31T01:50:12.312Z,0.6
2016-12-31T01:50:22.307Z,0.6
2016-12-31T01:50:32.299Z,0.7
2016-12-31T01:50:42.292Z,0.5
2016-12-31T01:50:52.282Z,0.6
2016-12-31T01:51:02.275Z,0.6
2016-12-31T01:51:12.270Z,0.6
2016-12-31T01:51:22.262Z,0.6
2016-12-31T01:51:32.255Z,0.6
2016-12-31T01:51:42.248Z,0.5
2016-12-31T01:51:52.241Z,0.6
2016-12-31T01:52:02.234Z,0.5
2016-12-31T01:52:12.230Z,0.6
2016-12-31T01:52:22.220Z,0.6
2016-12-31T01:52:32.214Z,0.5
2016-12-31T01:52:42.208Z,0.5
2016-12-31T01:52:52.199Z,0.6
2016-12-31T01:53:02.195Z,0.6
2016-12-31T01:53:12.188Z,0.6
2016-12-31T01:53:22.181Z,0.6
2016-12-31T01:53:32.173Z,0.7
2016-12-31T01:53:42.165Z,0.7
2016-12-31T01:53:52.160Z,0.6
2016-12-31T01:54:02.151Z,0.6
2016-12-31T01:54:12.146Z,0.7
2016-12-31T01:54:22.141Z,0.6
2016-12-31T01:54:32.130Z,0.5
2016-12-31T01:54:42.124Z,0.5
2016-12-31T01:54:52.117Z,0.6
2016-12-31T01:55:02.109Z,0.5
2016-12-31T01:55:12.103Z,0.5
2016-12-31T01:55:22.099Z,0.5
2016-12-31T01:55:32.089Z,0.5
2016-12-31T01:55:42.082Z,0.5
2016-12-31T01:55:52.075Z,0.5
2016-12-31T01:56:02.071Z,0.5
2016-12-31T01:56:12.062Z,0.5
2016-12-31T01:56:22.056Z,0.5
2016-12-31T01:56:32.046Z,0.6
2016-12-31T01:56:42.040Z,0.6
2016-12-31T01:56:52.036Z,0.6
2016-12-31T01:57:02.026Z,0.6
2016-12-31T01:57:12.021Z,0.6
2016-12-31T01:57:22.012Z,0.6
2016-12-31T01:57:32.007Z,0.6
2016-12-31T01:57:42.001Z,0.6
2016-12-31T01:57:51.994Z,0.6
2016-12-31T01:58:01.988Z,0.6
2016-12-31T01:58:11.979Z,0.6
2016-12-31T01:58:21.974Z,0.6
2016-12-31T01:58:31.966Z,0.7
2016-12-31T01:58:41.959Z,0.7
2016-12-31T01:58:51.954Z,0.8
2016-12-31T01:59:01.947Z,0.8
2016-12-31T01:59:11.938Z,0.7
2016-12-31T01:59:21.931Z,0.8
2016-12-31T01:59:31.925Z,0.7
2016-12-31T01:59:41.919Z,0.7
2016-12-31T01:59:51.911Z,0.7
2016-12-31T02:00:01.902Z,0.7
2016-12-31T02:00:11.898Z,0.7
2016-12-31T02:00:21.888Z,0.7
2016-12-31T02:00:31.880Z,0.8
2016-12-31T02:00:41.876Z,0.8
2016-12-31T02:00:51.867Z,0.8
2016-12-31T02:01:01.860Z,0.7
2016-12-31T02:01:11.853Z,0.7
2016-12-31T02:01:21.849Z,0.8
2016-12-31T02:01:31.843Z,0.8
2016-12-31T02:01:41.832Z,0.8
2016-12-31T02:01:51.829Z,0.8
2016-12-31T02:02:01.821Z,0.9
2016-12-31T02:02:11.814Z,0.9
2016-12-31T02:02:21.808Z,0.9
2016-12-31T02:02:31.799Z,0.9
2016-12-31T02:02:41.791Z,0.9
2016-12-31T02:02:51.788Z,0.9
2016-12-31T02:03:01.777Z,0.9
2016-12-31T02:03:11.774Z,0.9
2016-12-31T02:03:21.763Z,1
2016-12-31T02:03:31.756Z,1
2016-12-31T02:03:41.749Z,1
2016-12-31T02:03:51.742Z,1
2016-12-31T02:04:01.736Z,1
2016-12-31T02:04:11.732Z,1
2016-12-31T02:04:21.723Z,1
2016-12-31T02:04:31.717Z,1.1
2016-12-31T02:04:41.709Z,1
2016-12-31T02:04:51.703Z,1.1
2016-12-31T02:05:01.695Z,1.1
2016-12-31T02:05:11.689Z,1.1
2016-12-31T02:05:21.682Z,1.1
2016-12-31T02:05:31.675Z,1.2
2016-12-31T02:05:41.668Z,1.1
2016-12-31T02:05:51.660Z,1.2
2016-12-31T02:06:01.652Z,1.1
2016-12-31T02:06:11.645Z,1.2
2016-12-31T02:06:21.642Z,1.2
2016-12-31T02:06:31.634Z,1.2
2016-12-31T02:06:41.628Z,1.3
2016-12-31T02:06:51.620Z,1.2
2016-12-31T02:07:01.611Z,1.2
2016-12-31T02:07:11.607Z,1.3
2016-12-31T02:07:21.597Z,1.3
2016-12-31T02:07:31.593Z,1.3
2016-12-31T02:07:41.585Z,1.3
2016-12-31T02:07:51.578Z,1.3
2016-12-31T02:08:01.573Z,1.4
2016-12-31T02:08:11.564Z,1.3
2016-12-31T02:08:21.555Z,1.3
2016-12-31T02:08:31.549Z,1.4
2016-12-31T02:08:41.541Z,1.3
2016-12-31T02:08:51.537Z,1.4
2016-12-31T02:09:01.528Z,1.4
2016-12-31T02:09:11.520Z,1.4
2016-12-31T02:09:21.516Z,1.5
2016-12-31T02:09:31.511Z,1.4
2016-12-31T02:09:41.502Z,1.4
2016-12-31T02:09:51.493Z,1.4
2016-12-31T02:10:01.487Z,1.4
2016-12-31T02:10:11.481Z,1.5
2016-12-31T02:10:21.475Z,1.5
2016-12-31T02:10:31.465Z,1.5
2016-12-31T02:10:41.464Z,1.5
2016-12-31T02:10:51.454Z,1.5
2016-12-31T02:11:01.447Z,1.5
2016-12-31T02:11:11.438Z,1.5
2016-12-31T02:11:21.432Z,1.5
2016-12-31T02:11:31.424Z,1.5
2016-12-31T02:11:41.417Z,1.5
2016-12-31T02:11:51.409Z,1.5
2016-12-31T02:12:01.405Z,1.6
2016-12-31T02:12:11.399Z,1.6
2016-12-31T02:12:21.391Z,1.6
2016-12-31T02:12:31.382Z,1.6
2016-12-31T02:12:41.377Z,1.6
2016-12-31T02:12:51.370Z,1.6
2016-12-31T02:13:01.364Z,1.5
2016-12-31T02:13:11.360Z,1.5
2016-12-31T02:13:21.350Z,1.6
2016-12-31T02:13:31.341Z,1.6
2016-12-31T02:13:41.336Z,1.7
2016-12-31T02:13:51.327Z,1.7
2016-12-31T02:14:01.321Z,1.7
2016-12-31T02:14:11.315Z,1.6
2016-12-31T02:14:21.308Z,1.5
2016-12-31T02:14:31.301Z,1.7
2016-12-31T02:14:41.292Z,1.6
2016-12-31T02:14:51.288Z,1.7
2016-12-31T02:15:01.280Z,1.8
2016-12-31T02:15:11.271Z,1.6
2016-12-31T02:15:21.264Z,1.5
2016-12-31T02:15:31.261Z,1.5
2016-12-31T02:15:41.254Z,1.5
2016-12-31T02:15:51.245Z,1.6
2016-12-31T02:16:01.240Z,1.7
2016-12-31T02:16:11.233Z,1.5
2016-12-31T02:16:21.225Z,1.7
2016-12-31T02:16:31.218Z,1.7
2016-12-31T02:16:41.211Z,1.7
2016-12-31T02:16:51.204Z,1.7
2016-12-31T02:17:01.195Z,1.6
2016-12-31T02:17:11.190Z,1.6
2016-12-31T02:17:21.181Z,1.7
2016-12-31T02:17:31.175Z,1.7
2016-12-31T02:17:41.170Z,1.7
2016-12-31T02:17:51.161Z,1.7
2016-12-31T02:18:01.153Z,1.6
2016-12-31T02:18:11.147Z,1.7
2016-12-31T02:18:21.144Z,1.6
2016-12-31T02:18:31.135Z,1.7
2016-12-31T02:18:41.126Z,1.7
2016-12-31T02:18:51.122Z,1.6
2016-12-31T02:19:01.112Z,1.7